Madrid, IA (50156)

12:12 PM CDT on March 23, 2017 (GMT -0500)
SE side of Madrid, IA | | Change Station

Elev 1001 ft 41.87 °N, 93.81 °W | Updated 3 seconds ago

Overcast
Overcast
44.3 °F
Feels Like 41 °F
N
6.2
Wind Variable Wind from SE
Gusts 11.5 mph

Today
High -- | Low -- °F
--% Chance of Precip.
Yesterday
High -- | Low -- °F
Precip. -- in
Pressure 30.01 in
Visibility 10.0 miles
Clouds Overcast 2100 ft
Windchill 41 °F
Dew Point 33 °F
Humidity 64%
Rainfall 0.00 in
Snow Depth Not available.
7:12 AM 7:31 PM
Waning Crescent, 22% visible
METAR KBNW 231655Z AUTO 14020G25KT 10SM OVC021 06/M03 A3001 RMK AO2
Pressure 30.01 in
Visibility 10.0 miles
Clouds Overcast 2100 ft
Windchill 41 °F
Dew Point 33 °F
Humidity 64%
Rainfall 0.00 in
Snow Depth Not available.
7:12 AM 7:31 PM
Waning Crescent, 22% visible
METAR KBNW 231655Z AUTO 14020G25KT 10SM OVC021 06/M03 A3001 RMK AO2

Get Severe Weather Alerts

Thanks for signing up!

Be on the lookout for a verification email in your inbox.

You'll start receiving the daily forecast at 8 AM.

×

10-Day Weather Forecast

Almanac

Astronomy

Mar. 23, 2017 Rise Set
Actual Time
Civil Twilight
Nautical Twilight
Astronomical Twilight
Moon
Length of Visible Light
Length of Day
Tomorrow will be .
, % of the Moon is Illuminated

Today's Extremes

State Highs State Lows

Community

WunderPhotos

Upload Photos

1,962,540 photos uploaded!

WunderBlog® & News

Nearby

Air Quality

  Air Quality AQ Index Pollutant
Not available.

Snow Depth

Station Depth Elevation

Earthquake Activity

City Distance Mag. Time & Date
Minimum magnitude displayed is 2.5.

Earthquake Activity

City Distance Mag. Time & Date
Minimum magnitude displayed is 2.5.

Coastal Water Temperatures

Place Temperature

Stations

Nearby Weather Stations

Station Location Temp. Windchill Dew Point Humidity Wind Precip. Elev Updated Type
                   

Watches & Warnings

There are currently no watches in effect.